Airfield :
LOGIN :

Register | Disclaimer

   EN    FR    IT 

 










Legend :    VFR   Marginal VFR   IFR   Intensive IFR   Very Intensive IFR
Visi :
Ceiling :
>= 8 km
>= 3000ft
5 to 8 km
1000 to 3000 ft
1500m to 5 km
500 to 1000 ft
800 to 1500m
200 to 500 ft
< 800m
< 200 ft
Symbols :   Thunderstorms  Fog  Heavy snow  Heavy precipitations  Wind > 20 kt
SIGMETs :     Misc.  Thunderstorms  Icing  Turbulence  Mountain Waves  Volcanic Ashes







- Airport Elevation : 375 ft
- IATA code : MST


EHBK - Maastricht Aachen

CURRENT METAR :
  • 180755Z AUTO 06008KT 9000 NCD M00/M02 Q1028 NOSIG

EXPIRED METARs :
  • 180725Z AUTO 05008KT 8000 NCD M01/M03 Q1028 NOSIG
  • 180655Z AUTO 06009KT 9000 NCD M01/M03 Q1028 NOSIG
  • 180625Z AUTO 05009KT 9999 NCD M01/M03 Q1028 NOSIG
  • 180555Z AUTO 05007KT 9999 NCD M01/M03 Q1028 NOSIG
  • 180525Z AUTO 06007KT 9999 NCD M01/M03 Q1028 NOSIG

TAF TAF EHBK
Valid from the 18 at 06:00 until the 19 at 12:00 UTC


180513Z 1806/1912 08009KT CAVOK
BECMG 1902/1905 4000 BR BKN008
PROB40
TEMPO 1903/1908 2000 BKN004
BECMG 1907/1910 05012KT 9999 NSW BKN015
PROB40
TEMPO 1907/1912 7000 -RADZ BKN012
No reported NOTAMs for that airfield.



MET'MAP, your aeronautical weather chart ! - Copyright ORBIFLY December 2007 - Disclaimer

ORBIFLY MET'MAP TEAM :

Programming & Development : Alexandra Zaïnal
Concept & Development : Baudouin d'Aumeries
Co-Development & Prog : Marc-Olivier Méhu
Technical & hardware support : Manuel Goepfert

Contact : metmap@orbifly.com




SOURCES & CREDITS :

   NOAA